Redondo, Valles Caldera, New Mexico Weather observations

Data are for 10 minute period ending at time listed.
 Day   Time   Solar   Ave.   Ave.  Ave.  Vector  Max.   Baro.   Total    
  of    of     Rad.   Air    Rel.  Wind   Wind   Wind  Press.  Precip.   
Year   Day            Temp.  Hum.  Speed  Dir.   Gust                    
2014   (MST)  Kw/m2    F      %     mph   deg.    mph    mb.     in.     
-------------------------------------------------------------------------
 259   15:30   0.28   55.2    75    3.3   251     7.8   695.3    0.00 
 259   15:40   0.33   55.6    73    3.3   252     8.4   695.3    0.00 
 259   15:50   0.70   58.0    66    2.8   221     6.0   695.2    0.00 
 259   16:00   0.42   60.4    62    3.5   243     9.0   695.2    0.00 
 259   16:10   0.30   57.4    67    3.9   270     8.4   695.2    0.00 
 259   16:20   0.24   56.0    70    3.5   253     7.2   695.2    0.00 
 259   16:30   0.33   57.0    68    3.8   267     7.8   695.1    0.00 
 259   16:40   0.13   54.9    73    4.6   278     8.4   695.1    0.00 
 259   16:50   0.14   53.6    76    4.3   275     8.4   695.1    0.00 
 259   17:00   0.12   53.0    78    3.8   251     7.2   695.1    0.00 
 259   17:10   0.08   52.2    80    4.3   229     8.4   695.1    0.00 
 259   17:20   0.07   51.8    81    3.4   224     9.6   695.1    0.00 
 259   17:30   0.05   51.3    82    3.2   256     6.6   695.2    0.00 
 259   17:40   0.04   50.8    84    3.1   242     6.0   695.2    0.00 
 259   17:50   0.03   50.2    85    2.1   215     4.8   695.2    0.00 
 259   18:00   0.02   50.1    82    0.9   230     3.6   695.2    0.00 
 259   18:10   0.01   49.7    83    1.9   215     5.4   695.1    0.00 
 259   18:20   0.00   49.1    84    0.5   177     4.2   695.1    0.00 
 259   18:30   0.00   48.8    84    0.4   125     3.0   695.2    0.00 
 259   18:40   0.00   48.7    84    0.0     0     0.0   695.3    0.00 
 259   18:50   0.00   48.3    84    0.2   122     1.8   695.3    0.00 
 259   19:00   0.00   47.8    85    0.4   122     1.8   695.3    0.00 
 259   19:10   0.00   47.9    86    0.1   122     1.2   695.5    0.00 
 259   19:20   0.00   48.5    86    0.2   122     3.0   695.6    0.00 
 259   19:30   0.00   48.2    85    0.2   125     1.8   695.6    0.00 
 259   19:40   0.00   48.0    87    0.7   127     1.8   695.7    0.00 
 259   19:50   0.00   47.6    88    0.0   127     1.2   695.7    0.00 
 259   20:00   0.00   47.4    89    0.0     0     0.0   695.8    0.00 
 259   20:10   0.00   46.8    89    0.0     0     0.0   695.7    0.00 
 259   20:20   0.00   46.8    91    0.0     0     0.0   695.7    0.00 
 259   20:30   0.00   46.6    92    0.0     0     0.0   695.7    0.00 
 259   20:40   0.00   46.3    91    0.0     0     0.0   695.7    0.00 
 259   20:50   0.00   46.4    92    0.0     0     0.0   695.7    0.00 
 259   21:00   0.00   46.5    91    0.0     0     0.0   695.7    0.00 
 259   21:10   0.00   46.5    90    0.0     0     0.0   695.7    0.00 
 259   21:20   0.00   46.3    91    0.1   127     1.2   695.7    0.00 
 259   21:30   0.00   46.1    90    0.0     0     0.0   695.7    0.00 
 259   21:40   0.00   46.2    88    0.0   127     1.2   695.7    0.00 
 259   21:50   0.00   46.3    87    0.0   126     1.2   695.6    0.00 
 259   22:00   0.00   45.8    78    0.0     0     0.0   695.5    0.00 
 259   22:10   0.00   45.7    74    0.0   123     1.2   695.4    0.00 
 259   22:20   0.00   45.6    73    0.0     0     0.0   695.4    0.00 
 259   22:30   0.00   45.8    71    0.0     0     0.0   695.4    0.00 
 259   22:40   0.00   45.6    72    0.0     0     0.0   695.4    0.00 
 259   22:50   0.00   45.5    74    0.0     0     0.0   695.4    0.00 
 259   23:00   0.00   45.9    78    0.0     0     0.0   695.3    0.00 
 259   23:10   0.00   45.7    80    0.0     0     0.0   695.3    0.00 
 259   23:20   0.00   45.8    81    0.0     0     0.0   695.1    0.00 
 259   23:30   0.00   45.8    76    0.0     0     0.0   695.1    0.00 
 259   23:40   0.00   45.7    74    0.0     0     0.0   695.1    0.00 
 259   23:50   0.00   46.2    75    0.0     0     0.0   695.1    0.00 
 260    0:00   0.00   46.2    74    0.0     0     0.0   695.1    0.00 
 260    0:10   0.00   45.8    73    0.0     0     0.0   695.1    0.00 
 260    0:20   0.00   45.5    73    0.0     0     0.0   695.0    0.00 
 260    0:30   100.00  99999.0   99999  99999.0   99999   99999.0   99999.0   99999.00 
 260    0:40   100.00  99999.0   99999  99999.0   99999   99999.0   99999.0   99999.00 
 260    0:50   100.00  99999.0   99999  99999.0   99999   99999.0   99999.0   99999.00 
 260    1:00   100.00  99999.0   99999  99999.0   99999   99999.0   99999.0   99999.00 
 260    1:10   100.00  99999.0   99999  99999.0   99999   99999.0   99999.0   99999.00 
 260    1:20   100.00  99999.0   99999  99999.0   99999   99999.0   99999.0   99999.00 
 260    1:30   100.00  99999.0   99999  99999.0   99999   99999.0   99999.0   99999.00 
 260    1:40   100.00  99999.0   99999  99999.0   99999   99999.0   99999.0   99999.00 
 260    1:50   100.00  99999.0   99999  99999.0   99999   99999.0   99999.0   99999.00 
 260    2:00   100.00  99999.0   99999  99999.0   99999   99999.0   99999.0   99999.00 
 260    2:10   100.00  99999.0   99999  99999.0   99999   99999.0   99999.0   99999.00 
 260    2:20   100.00  99999.0   99999  99999.0   99999   99999.0   99999.0   99999.00 
 260    2:30   100.00  99999.0   99999  99999.0   99999   99999.0   99999.0   99999.00 
 260    2:40   100.00  99999.0   99999  99999.0   99999   99999.0   99999.0   99999.00 
 260    2:50   100.00  99999.0   99999  99999.0   99999   99999.0   99999.0   99999.00 
 260    3:00   100.00  99999.0   99999  99999.0   99999   99999.0   99999.0   99999.00 
 260    3:10   100.00  99999.0   99999  99999.0   99999   99999.0   99999.0   99999.00 
 260    3:20   100.00  99999.0   99999  99999.0   99999   99999.0   99999.0   99999.00 
 260    3:30   100.00  99999.0   99999  99999.0   99999   99999.0   99999.0   99999.00 
 260    3:40   100.00  99999.0   99999  99999.0   99999   99999.0   99999.0   99999.00 
 260    3:50   100.00  99999.0   99999  99999.0   99999   99999.0   99999.0   99999.00 
 260    4:00   100.00  99999.0   99999  99999.0   99999   99999.0   99999.0   99999.00 
 260    4:10   100.00  99999.0   99999  99999.0   99999   99999.0   99999.0   99999.00 
 260    4:20   100.00  99999.0   99999  99999.0   99999   99999.0   99999.0   99999.00 
 260    4:30   0.00   46.4    88    0.0     0     0.0   693.8    0.00 
 260    4:40   0.00   46.1    88    0.0     0     0.0   693.8    0.00 
 260    4:50   0.00   45.9    89    0.0     0     0.0   693.8    0.00 
 260    5:00   0.00   46.0    88    0.0     0     0.0   693.8    0.00 
 260    5:10   0.00   46.0    88    0.0     0     0.0   693.8    0.00 
 260    5:20   0.00   45.7    89    0.0     0     0.0   693.9    0.00 
 260    5:30   0.00   45.7    89    0.0     0     0.0   693.9    0.00 
 260    5:40   0.00   45.8    87    0.0     0     0.0   693.9    0.00 
 260    5:50   0.00   45.8    87    0.0     0     0.0   694.0    0.00 
 260    6:00   0.00   45.5    87    0.0     0     0.0   694.1    0.00 
 260    6:10   0.01   45.3    88    0.0     0     0.0   694.1    0.00 
 260    6:20   0.01   45.6    90    0.0     0     0.0   694.1    0.00 
 260    6:30   0.02   45.9    90    0.0     0     0.0   694.1    0.00 
 260    6:40   0.02   46.1    90    0.1    14     1.8   694.2    0.00 
 260    6:50   0.03   46.4    91    0.1    12     1.8   694.2    0.00 
 260    7:00   0.04   46.7    91    0.0     0     0.0   694.2    0.00 
 260    7:10   0.05   47.2    90    0.0     0     0.0   694.2    0.00 
 260    7:20   0.07   47.8    89    0.0     0     0.0   694.3    0.00 
 260    7:30   0.08   48.6    86    0.0     0     0.0   694.3    0.00 
 260    7:40   0.09   49.5    81    0.0     0     0.0   694.3    0.00 
 260    7:50   0.12   50.4    80    0.0     0     0.0   694.4    0.00 
 260    8:00   0.12   50.7    78    0.0    12     1.2   694.3    0.00 
 260    8:10   0.13   51.0    78    0.0     8     1.2   694.4    0.00 
 260    8:20   0.16   51.4    77    0.0     0     0.0   694.4    0.00 
 260    8:30   0.18   52.0    76    0.0    46     1.2   694.4    0.00 
 260    8:40   0.20   52.6    76    1.1   117     4.2   694.4    0.00 
 260    8:50   0.24   51.0    81    2.0   143     4.2   694.4    0.00 
 260    9:00   0.31   51.4    80    2.0   109     3.6   694.4    0.00 
 260    9:10   0.35   53.5    74    1.6    44     4.2   694.4    0.00 
 260    9:20   0.30   54.3    73    1.2   110     3.6   694.3    0.00 
 260    9:30   0.27   53.7    74    0.8    97     3.6   694.3    0.00 
 260    9:40   0.27   53.1    75    1.0    23     3.0   694.3    0.00 
 260    9:50   0.27   52.6    76    1.7   280     4.2   694.3    0.00 
 260   10:00   0.25   52.7    76    0.6   284     3.0   694.3    0.00 
 260   10:10   0.28   52.4    77    0.4   313     3.0   694.3    0.00 
 260   10:20   0.30   53.2    76    1.1   332     3.0   694.3    0.00 
 260   10:30   0.25   53.6    75    1.9   327     3.6   694.3    0.00 
 260   10:40   0.23   53.0    75    1.3   212     3.6   694.3    0.00 
 260   10:50   0.31   53.2    74    1.6   125     4.8   694.3    0.00 
 260   11:00   0.31   53.3    72    2.8   121     6.0   694.3    0.00 
 260   11:10   0.35   53.1    73    1.7   322     4.8   694.2    0.00 
 260   11:20   0.29   51.8    79    3.1   217     6.6   694.1    0.00 
 260   11:30   0.27   52.1    79    0.7   243     2.4   694.1    0.00 
 260   11:40   0.22   52.5    79    1.3   303     3.0   694.0    0.00 
 260   11:50   0.22   52.9    78    2.5   306     6.6   694.0    0.00 
 260   12:00   0.28   51.7    82    2.3   296     5.4   694.0    0.00 
 260   12:10   0.29   51.0    84    2.9   260     4.8   693.9    0.00 
 260   12:20   0.29   51.3    81    2.4   255     4.8   693.9    0.00 
 260   12:30   0.28   51.2    85    3.6   286     5.4   693.9    0.00 
 260   12:40   0.21   51.0    86    3.0   282     6.0   693.8    0.00 
 260   12:50   0.19   50.4    86    2.7   270     6.6   693.8    0.00 
 260   13:00   0.21   50.0    86    3.9   230     7.8   693.8    0.00 
 260   13:10   0.16   50.3    84    3.5   274     6.0   693.7    0.00 
 260   13:20   0.19   50.0    86    3.7   294     7.2   693.6    0.00 
 260   13:30   0.13   49.6    88    2.7   266     6.0   693.7    0.00 
 260   13:40   0.17   48.9    89    2.8   248     6.6   693.6    0.00 
 260   13:50   0.27   49.3    84    4.7   200     9.0   693.4    0.00 
 260   14:00   0.28   50.2    80    3.9   267    10.8   693.3    0.00 
 260   14:10   0.18   49.9    83    3.5   277     6.6   693.4    0.00 
 260   14:20   0.06   48.3    87    2.8   226     6.6   693.5    0.03 
 260   14:30   0.08   47.7    88    1.4   248     5.4   693.4    0.01 
 260   14:40   0.14   48.2    86    1.6   165     4.2   693.4    0.00 
 260   14:50   0.17   48.7    80    2.2   155     6.0   693.4    0.00 
 260   15:00   0.15   48.6    79    3.7   145     7.2   693.4    0.00 
 260   15:10   0.21   48.1    82    4.3   169     8.4   693.1    0.01 
 260   15:20   0.32   48.8    78    4.6   138    10.2   692.8    0.00 

Return to Redondo, Valles Caldera graphs page.


Western Regional Climate Center,wrcc@dri.edu